Metar z pełnej godziny Komunikat METAR ze strony awiacja.imgw.pl Metar G00 EPZG METAR EPZG 200200Z 23001KT CAVOK 15/13 Q1015 =